Harvester, Missouri
Current Conditions -  °F | °C
As of 3:54 PM on Tuesday 21 Oct 2014 (Local Time) from KSUS Reporting Station
Clear Clear  
Wind Chill: 67°   Ceiling: Unl
Heat Index: 67°   Visibility: 10mi
Dew Point: 45°   Wind: 5mph
Humidity: 45%   Direction: 10°N
Pressure: 30.1"   Gusts: NA
Location:  38.7493°N, 90.5423°W
Report Text: KSUS 212054Z 01004KT 10SM CLR 19/07 A3010 RMK AO2 SLP192 T01940072 56008
Loading
Personal Weather Stations






























Interactive Weather Map
Tropical Storm Tracking
New forecast layout! Learn more

10-Day Weather Forecast

Advertisements
Track Severe Weather on mobile